createdAt,value
2018-12-06T00:01:09.175Z,17.67
2018-12-06T00:03:41.885Z,15.90
2018-12-06T00:06:15.062Z,16.57
2018-12-06T00:08:48.075Z,15.85
2018-12-06T00:11:19.961Z,18.30
2018-12-06T00:13:52.432Z,16.95
2018-12-06T00:16:26.121Z,15.85
2018-12-06T00:19:08.322Z,15.95
2018-12-06T00:21:41.523Z,16.42
2018-12-06T00:24:13.872Z,15.55
2018-12-06T00:26:49.225Z,17.75
2018-12-06T00:29:22.332Z,17.50
2018-12-06T00:31:54.562Z,15.98
2018-12-06T00:34:27.142Z,17.32
2018-12-06T00:37:00.122Z,16.87
2018-12-06T00:39:32.872Z,16.77
2018-12-06T00:42:04.542Z,16.05
2018-12-06T00:44:37.492Z,17.45
2018-12-06T00:47:10.232Z,17.30
2018-12-06T00:49:42.032Z,15.23
2018-12-06T00:52:15.322Z,15.93
2018-12-06T00:54:48.272Z,17.67
2018-12-06T00:57:21.432Z,66.17
2018-12-06T00:59:53.340Z,17.15
2018-12-06T01:02:25.821Z,16.87
2018-12-06T01:04:58.672Z,15.95
2018-12-06T01:07:31.042Z,16.70
2018-12-06T01:10:03.441Z,15.85
2018-12-06T01:12:36.161Z,17.17
2018-12-06T01:15:08.442Z,15.78
2018-12-06T01:17:41.641Z,14.05
2018-12-06T01:20:13.371Z,15.40
2018-12-06T01:22:45.731Z,16.10
2018-12-06T01:25:17.952Z,15.93
2018-12-06T01:27:51.221Z,15.80
2018-12-06T01:30:23.412Z,17.10
2018-12-06T01:32:56.142Z,16.70
2018-12-06T01:35:28.061Z,17.12
2018-12-06T01:38:01.082Z,15.93
2018-12-06T01:40:34.132Z,15.25
2018-12-06T01:43:07.532Z,15.55
2018-12-06T01:45:40.442Z,16.30
2018-12-06T01:48:12.551Z,15.38
2018-12-06T01:50:44.981Z,15.35
2018-12-06T01:53:18.035Z,11.43
2018-12-06T01:55:50.075Z,9.23
2018-12-06T01:58:22.766Z,8.33
2018-12-06T02:00:56.040Z,6.78
2018-12-06T02:03:28.871Z,8.00
2018-12-06T02:06:02.450Z,9.65
2018-12-06T02:08:34.581Z,9.38
2018-12-06T02:11:07.564Z,9.35
2018-12-06T02:13:40.891Z,8.65
2018-12-06T02:16:13.880Z,8.03
2018-12-06T02:18:46.262Z,21.07
2018-12-06T02:21:18.160Z,9.13
2018-12-06T02:23:51.321Z,8.00
2018-12-06T02:26:27.579Z,9.98
2018-12-06T02:28:59.892Z,6.80
2018-12-06T02:31:32.394Z,9.95
2018-12-06T02:34:05.692Z,9.00
2018-12-06T02:36:37.861Z,9.20
2018-12-06T02:39:12.230Z,9.68
2018-12-06T02:41:46.571Z,10.08
2018-12-06T02:44:18.794Z,10.60
2018-12-06T02:46:52.419Z,9.03
2018-12-06T02:49:25.100Z,10.98
2018-12-06T02:51:58.809Z,9.63
2018-12-06T02:54:31.919Z,10.10
2018-12-06T02:57:05.001Z,10.00
2018-12-06T02:59:36.082Z,10.43
2018-12-06T03:02:09.230Z,10.20
2018-12-06T03:04:41.021Z,9.28
2018-12-06T03:07:13.700Z,9.30
2018-12-06T03:09:46.431Z,8.30
2018-12-06T03:12:20.161Z,8.90
2018-12-06T03:14:51.701Z,9.55
2018-12-06T03:17:26.062Z,8.60
2018-12-06T03:19:58.461Z,8.25
2018-12-06T03:22:30.671Z,8.10
2018-12-06T03:25:02.601Z,6.65
2018-12-06T03:27:35.300Z,10.10
2018-12-06T03:30:07.264Z,41.35
2018-12-06T03:32:39.982Z,53.33
2018-12-06T03:35:12.252Z,64.72
2018-12-06T03:37:44.976Z,65.35
2018-12-06T03:40:17.562Z,52.98
2018-12-06T03:42:49.925Z,50.60
2018-12-06T03:45:22.791Z,117.45
2018-12-06T03:47:55.581Z,120.92
2018-12-06T03:50:27.243Z,104.38
2018-12-06T03:53:01.932Z,80.38
2018-12-06T03:55:35.311Z,67.30
2018-12-06T03:58:08.552Z,65.50
2018-12-06T04:00:40.502Z,46.70
2018-12-06T04:03:12.761Z,46.95
2018-12-06T04:05:45.230Z,42.58
2018-12-06T04:08:17.512Z,38.35
2018-12-06T04:10:49.743Z,31.10
2018-12-06T04:13:22.702Z,24.47
2018-12-06T04:15:54.201Z,23.20
2018-12-06T04:18:27.581Z,15.35
2018-12-06T04:20:59.392Z,16.10
2018-12-06T04:23:31.731Z,13.65
2018-12-06T04:26:03.553Z,13.32
2018-12-06T04:28:36.853Z,13.70
2018-12-06T04:31:07.952Z,13.28
2018-12-06T04:33:40.772Z,12.95
2018-12-06T04:36:12.432Z,13.65
2018-12-06T04:38:44.672Z,14.87
2018-12-06T04:41:16.592Z,14.60
2018-12-06T04:43:50.182Z,14.53
2018-12-06T04:46:22.333Z,14.55
2018-12-06T04:48:55.542Z,13.15
2018-12-06T04:51:27.934Z,12.95
2018-12-06T04:54:01.164Z,14.00
2018-12-06T04:56:33.382Z,16.40
2018-12-06T04:59:05.652Z,14.75
2018-12-06T05:01:39.197Z,14.00
2018-12-06T05:04:12.202Z,12.33
2018-12-06T05:06:44.502Z,12.60
2018-12-06T05:09:17.884Z,11.83
2018-12-06T05:11:50.743Z,11.80
2018-12-06T05:14:23.364Z,12.20
2018-12-06T05:16:56.142Z,12.28
2018-12-06T05:19:29.193Z,11.03
2018-12-06T05:22:01.573Z,11.48
2018-12-06T05:24:33.964Z,11.08
2018-12-06T05:27:06.672Z,11.38
2018-12-06T05:29:38.183Z,10.48
2018-12-06T05:32:11.082Z,9.38
2018-12-06T05:34:42.851Z,8.70
2018-12-06T05:37:15.321Z,9.48
2018-12-06T05:39:48.251Z,8.65
2018-12-06T05:42:22.024Z,11.05
2018-12-06T05:44:54.232Z,10.20
2018-12-06T05:47:26.301Z,9.45
2018-12-06T05:50:01.151Z,8.55
2018-12-06T05:52:33.782Z,7.12
2018-12-06T05:55:06.481Z,5.95
2018-12-06T05:57:39.132Z,5.58
2018-12-06T06:00:11.648Z,7.35
2018-12-06T06:02:44.662Z,5.22
2018-12-06T06:05:18.941Z,5.22
2018-12-06T06:07:51.352Z,5.78
2018-12-06T06:10:24.802Z,5.70
2018-12-06T06:12:57.102Z,4.90
2018-12-06T06:15:29.791Z,5.28
2018-12-06T06:18:03.621Z,5.05
2018-12-06T06:21:19.181Z,5.67
2018-12-06T06:23:51.591Z,4.97
2018-12-06T06:26:24.371Z,5.12
2018-12-06T06:28:57.811Z,4.78
2018-12-06T06:31:30.584Z,4.90
2018-12-06T06:34:03.030Z,16.32
2018-12-06T06:36:37.091Z,5.10
2018-12-06T06:39:10.981Z,5.70
2018-12-06T06:41:44.532Z,6.53
2018-12-06T06:44:17.231Z,8.73
2018-12-06T06:46:49.450Z,6.70
2018-12-06T06:49:21.870Z,6.70
2018-12-06T06:51:53.981Z,8.03
2018-12-06T06:54:26.722Z,7.25
2018-12-06T06:56:59.911Z,7.33
2018-12-06T06:59:32.062Z,6.60
2018-12-06T07:02:04.392Z,6.00
2018-12-06T07:04:37.651Z,7.60
2018-12-06T07:07:10.200Z,6.35
2018-12-06T07:09:42.802Z,5.75
2018-12-06T07:12:15.593Z,6.08
2018-12-06T07:14:48.201Z,3.92
2018-12-06T07:17:20.761Z,8.88
2018-12-06T07:19:52.921Z,5.78
2018-12-06T07:22:26.732Z,5.67
2018-12-06T07:25:00.142Z,7.20
2018-12-06T07:27:33.031Z,3.80
2018-12-06T07:30:12.293Z,6.40
2018-12-06T07:32:40.182Z,8.00
2018-12-06T07:35:12.891Z,9.70
2018-12-06T07:37:45.592Z,10.85
2018-12-06T07:40:18.632Z,26.57
2018-12-06T07:42:51.481Z,12.98
2018-12-06T07:45:24.932Z,15.88
2018-12-06T07:47:56.971Z,13.93
2018-12-06T07:50:29.792Z,14.18
2018-12-06T07:53:02.231Z,14.05
2018-12-06T07:55:36.329Z,14.18
2018-12-06T07:58:09.223Z,15.20
2018-12-06T08:00:42.262Z,15.13
2018-12-06T08:03:14.811Z,16.02
2018-12-06T08:05:47.961Z,14.30
2018-12-06T08:08:19.970Z,17.52
2018-12-06T08:10:53.171Z,14.68
2018-12-06T08:13:25.891Z,14.45
2018-12-06T08:15:58.211Z,14.05
2018-12-06T08:18:31.251Z,13.70
2018-12-06T08:21:05.204Z,12.30
2018-12-06T08:23:38.561Z,12.50
2018-12-06T08:26:11.981Z,11.12
2018-12-06T08:28:44.593Z,13.10
2018-12-06T08:31:16.318Z,11.57
2018-12-06T08:33:50.751Z,14.30
2018-12-06T08:36:22.922Z,12.50
2018-12-06T08:38:56.171Z,11.40
2018-12-06T08:41:28.331Z,14.55
2018-12-06T08:44:01.662Z,11.70
2018-12-06T08:46:33.823Z,14.70
2018-12-06T08:49:06.511Z,15.15
2018-12-06T08:51:39.193Z,12.35
2018-12-06T08:54:12.458Z,16.48
2018-12-06T08:56:45.081Z,12.25
2018-12-06T08:59:18.581Z,12.47
2018-12-06T09:01:51.500Z,13.30
2018-12-06T09:04:23.950Z,12.20
2018-12-06T09:06:56.420Z,14.13
2018-12-06T09:09:28.731Z,14.63
2018-12-06T09:12:00.472Z,14.15
2018-12-06T09:14:33.581Z,15.83
2018-12-06T09:17:06.041Z,17.42
2018-12-06T09:19:39.292Z,15.65
2018-12-06T09:22:12.310Z,17.42
2018-12-06T09:24:45.472Z,16.82
2018-12-06T09:27:16.840Z,15.55
2018-12-06T09:29:50.052Z,13.15
2018-12-06T09:32:22.751Z,10.95
2018-12-06T09:34:55.350Z,8.08
2018-12-06T09:37:28.125Z,9.35
2018-12-06T09:40:02.370Z,8.85
2018-12-06T09:42:34.724Z,7.10
2018-12-06T09:45:07.861Z,7.35
2018-12-06T09:47:41.151Z,8.75
2018-12-06T09:50:13.992Z,7.55
2018-12-06T09:52:46.174Z,6.53
2018-12-06T09:55:19.541Z,7.30
2018-12-06T09:57:52.151Z,8.43
2018-12-06T10:00:24.304Z,7.00
2018-12-06T10:02:57.512Z,7.70
2018-12-06T10:05:30.502Z,8.60
2018-12-06T10:08:03.392Z,7.67
2018-12-06T10:10:35.662Z,6.42
2018-12-06T10:13:08.402Z,7.35
2018-12-06T10:15:41.771Z,6.90
2018-12-06T10:18:13.865Z,6.92
2018-12-06T10:20:47.721Z,6.42
2018-12-06T10:23:20.143Z,7.33
2018-12-06T10:25:53.470Z,7.10
2018-12-06T10:28:26.561Z,5.65
2018-12-06T10:30:59.162Z,6.28
2018-12-06T10:33:31.691Z,5.65
2018-12-06T10:36:04.311Z,5.42
2018-12-06T10:38:37.373Z,5.80
2018-12-06T10:41:09.631Z,5.00
2018-12-06T10:43:42.241Z,7.33
2018-12-06T10:46:15.661Z,5.90
2018-12-06T10:48:48.031Z,5.80
2018-12-06T10:51:30.311Z,5.53
2018-12-06T10:54:03.233Z,5.40
2018-12-06T10:56:36.952Z,5.20
2018-12-06T10:59:10.043Z,5.67
2018-12-06T11:01:46.882Z,5.05
2018-12-06T11:04:19.262Z,6.37
2018-12-06T11:06:51.883Z,6.30
2018-12-06T11:09:24.442Z,6.20
2018-12-06T11:11:57.292Z,9.03
2018-12-06T11:14:29.312Z,8.08
2018-12-06T11:17:02.191Z,19.45
2018-12-06T11:19:34.173Z,5.33
2018-12-06T11:22:07.652Z,4.60
2018-12-06T11:24:41.223Z,4.65
2018-12-06T11:27:14.432Z,5.90
2018-12-06T11:29:46.572Z,8.10
2018-12-06T11:32:19.713Z,13.20
2018-12-06T11:34:52.702Z,6.55
2018-12-06T11:37:25.852Z,7.30
2018-12-06T11:39:57.921Z,5.95
2018-12-06T11:42:30.722Z,5.43
2018-12-06T11:45:03.982Z,9.53
2018-12-06T11:47:36.712Z,8.30
2018-12-06T11:50:09.382Z,7.28
2018-12-06T11:52:43.053Z,6.85
2018-12-06T11:55:16.297Z,8.50
2018-12-06T11:57:49.201Z,6.28
2018-12-06T12:00:22.903Z,9.45
2018-12-06T12:02:55.002Z,9.23
2018-12-06T12:05:27.335Z,9.40
2018-12-06T12:08:00.252Z,10.53
2018-12-06T12:10:33.343Z,8.53
2018-12-06T12:13:06.052Z,8.95
2018-12-06T12:15:38.672Z,8.60
2018-12-06T12:18:12.112Z,7.80
2018-12-06T12:20:45.303Z,8.30
2018-12-06T12:23:17.892Z,9.30
2018-12-06T12:25:50.800Z,8.05
2018-12-06T12:28:22.822Z,8.50
2018-12-06T12:30:55.472Z,8.75
2018-12-06T12:33:28.366Z,7.40
2018-12-06T12:36:01.322Z,7.47
2018-12-06T12:38:33.792Z,7.00
2018-12-06T12:41:07.163Z,7.83
2018-12-06T12:43:39.583Z,7.50
2018-12-06T12:46:11.882Z,8.53
2018-12-06T12:48:44.161Z,8.70
2018-12-06T12:51:17.172Z,8.35
2018-12-06T12:53:49.582Z,8.65
2018-12-06T12:56:21.882Z,9.58
2018-12-06T12:58:54.642Z,9.88
2018-12-06T13:01:27.711Z,11.65
2018-12-06T13:04:00.402Z,10.18
2018-12-06T13:06:33.274Z,9.40
2018-12-06T13:09:06.572Z,24.23
2018-12-06T13:11:39.142Z,8.05
2018-12-06T13:14:12.302Z,12.00
2018-12-06T13:16:44.602Z,9.80
2018-12-06T13:19:17.633Z,10.53
2018-12-06T13:21:49.842Z,8.88
2018-12-06T13:24:23.981Z,9.25
2018-12-06T13:26:56.671Z,8.38
2018-12-06T13:29:28.992Z,7.62
2018-12-06T13:32:02.021Z,7.40
2018-12-06T13:34:33.881Z,10.23
2018-12-06T13:37:06.551Z,7.30
2018-12-06T13:39:39.753Z,8.48
2018-12-06T13:42:12.382Z,6.72
2018-12-06T13:44:44.881Z,9.03
2018-12-06T13:47:17.176Z,7.72
2018-12-06T13:49:49.573Z,6.70
2018-12-06T13:52:22.646Z,6.10
2018-12-06T13:54:55.651Z,7.05
2018-12-06T13:57:29.642Z,9.65
2018-12-06T14:00:01.824Z,8.08
2018-12-06T14:02:35.273Z,8.95
2018-12-06T14:05:07.622Z,6.70
2018-12-06T14:07:40.321Z,5.45
2018-12-06T14:10:12.383Z,4.85
2018-12-06T14:12:45.771Z,5.08
2018-12-06T14:15:17.991Z,4.00
2018-12-06T14:17:51.002Z,5.22
2018-12-06T14:20:24.062Z,7.53
2018-12-06T14:22:57.104Z,8.58
2018-12-06T14:25:29.271Z,9.60
2018-12-06T14:28:01.952Z,7.12
2018-12-06T14:30:36.052Z,6.05
2018-12-06T14:33:09.343Z,5.50
2018-12-06T14:35:43.362Z,5.20
2018-12-06T14:38:17.322Z,5.70
2018-12-06T14:40:51.523Z,5.55
2018-12-06T14:43:23.972Z,5.85
2018-12-06T14:45:57.250Z,5.65
2018-12-06T14:48:29.423Z,3.85
2018-12-06T14:51:03.182Z,4.72
2018-12-06T14:53:37.872Z,4.35
2018-12-06T14:56:10.703Z,3.77
2018-12-06T14:58:43.782Z,3.83
2018-12-06T15:01:16.802Z,7.05
2018-12-06T15:03:49.992Z,8.08
2018-12-06T15:06:22.842Z,6.47
2018-12-06T15:08:55.263Z,10.70
2018-12-06T15:11:28.713Z,4.10
2018-12-06T15:14:01.782Z,5.10
2018-12-06T15:16:35.182Z,3.60
2018-12-06T15:19:07.393Z,6.72
2018-12-06T15:21:40.222Z,4.70
2018-12-06T15:24:12.238Z,4.33
2018-12-06T15:26:44.732Z,4.30
2018-12-06T15:29:17.544Z,5.53
2018-12-06T15:31:49.612Z,5.15
2018-12-06T15:34:22.393Z,5.45
2018-12-06T15:36:56.193Z,4.90
2018-12-06T15:39:29.483Z,3.60
2018-12-06T15:42:03.982Z,3.42
2018-12-06T15:44:37.302Z,2.65
2018-12-06T15:47:09.723Z,3.60
2018-12-06T15:49:42.232Z,5.50
2018-12-06T15:52:14.874Z,3.58
2018-12-06T15:54:48.807Z,4.20
2018-12-06T15:57:22.175Z,5.90
2018-12-06T15:59:53.933Z,23.98
2018-12-06T16:02:25.994Z,3.47
2018-12-06T16:04:58.492Z,4.40
2018-12-06T16:07:31.163Z,6.87
2018-12-06T16:10:10.550Z,3.83
2018-12-06T16:12:49.356Z,3.85
2018-12-06T16:15:22.902Z,3.85
2018-12-06T16:17:56.121Z,4.80
2018-12-06T16:20:29.092Z,4.25
2018-12-06T16:23:03.282Z,5.00
2018-12-06T16:25:37.362Z,5.20
2018-12-06T16:28:10.472Z,4.33
2018-12-06T16:30:43.662Z,5.90
2018-12-06T16:33:17.082Z,6.33
2018-12-06T16:35:49.102Z,5.78
2018-12-06T16:38:21.862Z,5.35
2018-12-06T16:40:55.292Z,7.97
2018-12-06T16:43:28.133Z,7.50
2018-12-06T16:46:01.402Z,5.80
2018-12-06T16:48:34.682Z,15.80
2018-12-06T16:51:07.903Z,8.78
2018-12-06T16:53:40.295Z,8.45
2018-12-06T16:56:13.342Z,6.37
2018-12-06T16:58:46.720Z,8.40
2018-12-06T17:01:20.165Z,6.65
2018-12-06T17:03:53.753Z,7.97
2018-12-06T17:06:26.831Z,6.83
2018-12-06T17:08:59.102Z,5.15
2018-12-06T17:11:32.311Z,13.75
2018-12-06T17:14:04.808Z,6.70
2018-12-06T17:16:36.452Z,3.70
2018-12-06T17:19:09.741Z,4.70
2018-12-06T17:21:43.071Z,5.03
2018-12-06T17:24:15.281Z,5.37
2018-12-06T17:26:48.601Z,3.92
2018-12-06T17:29:21.425Z,4.33
2018-12-06T17:31:53.905Z,6.80
2018-12-06T17:34:26.581Z,6.75
2018-12-06T17:36:59.551Z,6.03
2018-12-06T17:39:32.512Z,16.90
2018-12-06T17:42:05.331Z,5.75
2018-12-06T17:44:38.282Z,7.55
2018-12-06T17:47:12.192Z,7.08
2018-12-06T17:49:45.372Z,8.10
2018-12-06T17:52:19.412Z,8.70
2018-12-06T17:54:52.610Z,9.75
2018-12-06T17:57:25.041Z,8.75
2018-12-06T17:59:57.492Z,6.85
2018-12-06T18:02:30.751Z,5.67
2018-12-06T18:05:04.171Z,5.10
2018-12-06T18:07:36.502Z,4.05
2018-12-06T18:10:09.882Z,2.77
2018-12-06T18:12:42.971Z,3.27
2018-12-06T18:15:16.792Z,3.27
2018-12-06T18:17:50.162Z,2.77
2018-12-06T18:20:22.135Z,2.95
2018-12-06T18:22:55.294Z,3.00
2018-12-06T18:25:27.852Z,2.80
2018-12-06T18:28:00.132Z,4.40
2018-12-06T18:30:32.952Z,2.62
2018-12-06T18:33:06.852Z,2.50
2018-12-06T18:35:39.460Z,3.35
2018-12-06T18:38:12.002Z,3.08
2018-12-06T18:40:44.504Z,2.72
2018-12-06T18:43:17.706Z,6.72
2018-12-06T18:45:50.781Z,2.80
2018-12-06T18:48:23.042Z,3.60
2018-12-06T18:50:55.442Z,5.60
2018-12-06T18:53:29.032Z,6.25
2018-12-06T18:56:01.602Z,6.30
2018-12-06T18:58:34.538Z,6.12
2018-12-06T19:01:06.921Z,7.80
2018-12-06T19:03:40.032Z,6.95
2018-12-06T19:06:12.972Z,7.90
2018-12-06T19:08:45.603Z,7.40
2018-12-06T19:11:18.264Z,8.55
2018-12-06T19:13:51.151Z,7.60
2018-12-06T19:16:23.791Z,8.58
2018-12-06T19:18:56.884Z,8.93
2018-12-06T19:21:29.292Z,8.50
2018-12-06T19:24:03.901Z,8.80
2018-12-06T19:26:36.612Z,8.85
2018-12-06T19:29:09.122Z,7.75
2018-12-06T19:31:42.152Z,9.25
2018-12-06T19:34:14.862Z,10.00
2018-12-06T19:36:47.152Z,7.90
2018-12-06T19:39:20.088Z,8.60
2018-12-06T19:41:53.285Z,7.97
2018-12-06T19:44:25.682Z,7.97
2018-12-06T19:46:59.001Z,8.33
2018-12-06T19:49:32.394Z,7.80
2018-12-06T19:52:05.422Z,8.25
2018-12-06T19:54:38.042Z,8.28
2018-12-06T19:57:09.912Z,8.98
2018-12-06T19:59:42.882Z,8.65
2018-12-06T20:02:15.521Z,9.13
2018-12-06T20:04:47.573Z,9.40
2018-12-06T20:07:21.117Z,9.70
2018-12-06T20:09:53.554Z,8.85
2018-12-06T20:12:26.312Z,8.60
2018-12-06T20:14:58.602Z,8.63
2018-12-06T20:17:30.842Z,9.55
2018-12-06T20:20:03.982Z,10.58
2018-12-06T20:22:37.023Z,7.85
2018-12-06T20:25:09.134Z,8.03
2018-12-06T20:27:42.272Z,8.55
2018-12-06T20:30:14.802Z,7.55
2018-12-06T20:32:48.243Z,7.33
2018-12-06T20:35:20.392Z,7.50
2018-12-06T20:37:52.822Z,8.50
2018-12-06T20:40:26.232Z,8.25
2018-12-06T20:43:00.022Z,9.23
2018-12-06T20:45:32.414Z,8.10
2018-12-06T20:48:05.222Z,7.25
2018-12-06T20:50:37.813Z,7.50
2018-12-06T20:53:11.522Z,7.97
2018-12-06T20:55:43.483Z,7.22
2018-12-06T20:58:15.962Z,7.12
2018-12-06T21:00:48.031Z,8.00
2018-12-06T21:03:21.682Z,7.20
2018-12-06T21:05:53.681Z,6.62
2018-12-06T21:08:26.832Z,7.20
2018-12-06T21:10:59.682Z,6.92
2018-12-06T21:13:31.993Z,5.87
2018-12-06T21:16:04.697Z,6.60
2018-12-06T21:18:37.972Z,6.00
2018-12-06T21:21:10.033Z,6.80
2018-12-06T21:23:42.464Z,5.90
2018-12-06T21:26:15.193Z,6.37
2018-12-06T21:28:48.092Z,5.70
2018-12-06T21:31:20.842Z,5.75
2018-12-06T21:33:53.356Z,5.85
2018-12-06T21:36:25.734Z,6.10
2018-12-06T21:38:58.833Z,5.15
2018-12-06T21:41:30.673Z,5.35
2018-12-06T21:44:04.392Z,5.00
2018-12-06T21:46:37.092Z,5.60
2018-12-06T21:49:10.422Z,5.33
2018-12-06T21:51:42.393Z,5.47
2018-12-06T21:54:15.593Z,5.00
2018-12-06T21:56:48.195Z,5.28
2018-12-06T22:00:44.733Z,5.17
2018-12-06T22:03:17.573Z,4.37
2018-12-06T22:05:50.503Z,4.90
2018-12-06T22:08:23.234Z,4.70
2018-12-06T22:10:55.223Z,5.20
2018-12-06T22:13:28.203Z,4.42
2018-12-06T22:16:00.173Z,5.37
2018-12-06T22:18:32.803Z,4.90
2018-12-06T22:21:05.558Z,5.15
2018-12-06T22:23:38.783Z,5.42
2018-12-06T22:26:12.173Z,4.60
2018-12-06T22:28:44.173Z,5.17
2018-12-06T22:31:15.113Z,4.20
2018-12-06T22:33:47.673Z,3.70
2018-12-06T22:36:20.344Z,3.60
2018-12-06T22:38:53.833Z,3.60
2018-12-06T22:41:26.185Z,3.85
2018-12-06T22:43:59.063Z,3.20
2018-12-06T22:46:32.263Z,3.20
2018-12-06T22:49:05.493Z,3.00
2018-12-06T22:51:37.383Z,2.72
2018-12-06T22:54:10.433Z,2.90
2018-12-06T22:56:43.913Z,2.90
2018-12-06T22:59:16.234Z,2.55
2018-12-06T23:01:49.909Z,3.02
2018-12-06T23:04:21.113Z,2.87
2018-12-06T23:06:53.513Z,3.15
2018-12-06T23:09:25.863Z,3.10
2018-12-06T23:11:58.104Z,3.15
2018-12-06T23:14:31.023Z,3.00
2018-12-06T23:17:02.836Z,3.20
2018-12-06T23:19:36.003Z,2.83
2018-12-06T23:22:08.453Z,2.80
2018-12-06T23:24:41.193Z,13.45
2018-12-06T23:27:13.683Z,3.02
2018-12-06T23:29:47.081Z,2.95
2018-12-06T23:32:19.451Z,3.05
2018-12-06T23:34:52.486Z,2.62
2018-12-06T23:37:25.103Z,2.45
2018-12-06T23:39:58.633Z,2.70
2018-12-06T23:42:30.854Z,2.60
2018-12-06T23:45:03.303Z,2.60
2018-12-06T23:47:36.143Z,2.95
2018-12-06T23:50:08.632Z,2.98
2018-12-06T23:52:40.782Z,2.75
2018-12-06T23:55:13.523Z,2.77
2018-12-06T23:57:46.120Z,3.10
